Time;durP1;ratioP1;P1;durP2;ratioP2;P2;SDS_P1;SDS_P2;PMS_P1;PMS_P2;Temp;Humidity;BMP_temperature;BMP_pressure;BME280_temperature;BME280_humidity;BME280_pressure;Samples;Min_cycle;Max_cycle;Signal;HPM_P1;HPM_P2
2022/07/30 00:01:59;;;;;;;4.57;2.65;;;13.30;99.90;;;;;;5010926;28;20529;-79
2022/07/30 00:04:25;;;;;;;5.65;3.20;;;13.30;99.90;;;;;;5013602;28;20033;-79
2022/07/30 00:06:51;;;;;;;6.82;5.47;;;13.30;99.90;;;;;;5013463;28;20080;-79
2022/07/30 00:09:17;;;;;;;5.80;3.25;;;13.20;99.90;;;;;;5013193;28;20029;-79
2022/07/30 00:11:43;;;;;;;4.40;2.67;;;13.20;99.90;;;;;;5013391;28;20026;-79
2022/07/30 00:14:08;;;;;;;4.88;3.17;;;13.30;99.90;;;;;;5013305;28;20064;-79
2022/07/30 00:16:34;;;;;;;5.82;2.60;;;13.10;99.90;;;;;;5012533;28;20065;-79
2022/07/30 00:19:01;;;;;;;3.33;2.33;;;13.10;99.90;;;;;;5012843;28;20100;-79
2022/07/30 00:21:27;;;;;;;3.53;2.60;;;13.00;99.90;;;;;;5013577;28;20030;-79
2022/07/30 00:23:53;;;;;;;4.57;2.22;;;12.90;99.90;;;;;;5013478;28;20048;-79
2022/07/30 00:26:18;;;;;;;4.93;2.85;;;12.80;99.90;;;;;;5013159;28;20101;-78
2022/07/30 00:28:44;;;;;;;3.25;2.25;;;12.70;99.90;;;;;;5012118;28;20372;-79
2022/07/30 00:31:10;;;;;;;4.85;2.38;;;12.60;99.90;;;;;;5011601;28;20029;-79
2022/07/30 00:33:36;;;;;;;5.88;3.28;;;12.60;99.90;;;;;;5011819;28;20030;-79
2022/07/30 00:36:02;;;;;;;5.15;3.22;;;12.50;99.90;;;;;;5012578;28;20402;-79
2022/07/30 00:38:28;;;;;;;5.22;2.80;;;12.60;99.90;;;;;;5012017;28;20383;-79
2022/07/30 00:40:54;;;;;;;6.70;3.47;;;12.60;99.90;;;;;;5012157;28;20029;-79
2022/07/30 00:43:19;;;;;;;6.10;3.60;;;12.60;99.90;;;;;;5012895;28;20529;-79
2022/07/30 00:45:46;;;;;;;8.70;3.78;;;12.70;99.90;;;;;;5012760;28;20036;-79
2022/07/30 00:48:13;;;;;;;4.30;3.42;;;12.70;99.90;;;;;;5010917;28;20041;-78
2022/07/30 00:50:39;;;;;;;5.15;3.53;;;12.80;99.90;;;;;;5013113;28;20033;-79
2022/07/30 00:53:05;;;;;;;6.45;3.30;;;12.80;99.90;;;;;;5012510;28;20128;-78
2022/07/30 00:55:32;;;;;;;5.07;3.63;;;12.80;99.90;;;;;;5012568;28;20022;-78
2022/07/30 00:57:58;;;;;;;4.10;3.22;;;12.80;99.90;;;;;;5012744;28;20045;-79
2022/07/30 01:00:24;;;;;;;3.15;2.88;;;12.90;99.90;;;;;;5012284;28;20100;-78
2022/07/30 01:02:50;;;;;;;11.18;3.55;;;12.80;99.90;;;;;;5009839;28;20037;-78
2022/07/30 01:05:15;;;;;;;3.95;3.35;;;12.70;99.90;;;;;;5012560;28;20034;-79
2022/07/30 01:07:42;;;;;;;5.50;2.65;;;12.70;99.90;;;;;;5012161;28;20026;-79
2022/07/30 01:10:09;;;;;;;4.35;3.05;;;12.60;99.90;;;;;;5010991;28;20018;-79
2022/07/30 01:12:36;;;;;;;3.80;2.55;;;12.50;99.90;;;;;;5012628;28;20084;-79
2022/07/30 01:15:04;;;;;;;3.53;3.17;;;12.40;99.90;;;;;;5010669;28;20379;-79
2022/07/30 01:17:30;;;;;;;6.40;3.55;;;12.30;99.90;;;;;;5012047;28;20414;-79
2022/07/30 01:20:02;;;;;;;8.32;3.67;;;12.30;99.90;;;;;;5012334;28;20368;-79
2022/07/30 01:22:27;;;;;;;5.90;3.60;;;12.30;99.90;;;;;;5012340;28;20040;-79
2022/07/30 01:24:56;;;;;;;5.00;3.45;;;12.30;99.90;;;;;;5011922;28;20018;-79
2022/07/30 01:27:23;;;;;;;5.05;3.97;;;12.30;99.90;;;;;;5010933;28;20444;-78
2022/07/30 01:29:52;;;;;;;6.20;3.78;;;12.30;99.90;;;;;;5012211;28;20018;-79
2022/07/30 01:32:21;;;;;;;6.65;3.95;;;12.30;99.90;;;;;;5011531;28;20026;-78
2022/07/30 01:34:50;;;;;;;3.75;3.35;;;12.40;99.90;;;;;;5010465;28;20083;-78
2022/07/30 01:37:17;;;;;;;4.15;3.53;;;12.40;99.90;;;;;;5011489;28;20018;-79
2022/07/30 01:39:44;;;;;;;3.40;3.10;;;12.30;99.90;;;;;;5011004;28;20030;-78
2022/07/30 01:42:12;;;;;;;6.15;3.40;;;12.20;99.90;;;;;;5011475;28;20030;-78
2022/07/30 01:44:39;;;;;;;5.72;3.40;;;12.20;99.90;;;;;;5011278;28;20432;-79
2022/07/30 01:47:07;;;;;;;6.07;4.07;;;12.10;99.90;;;;;;5011393;28;20025;-79
2022/07/30 01:49:34;;;;;;;3.40;3.05;;;12.00;99.90;;;;;;5010067;28;20022;-78
2022/07/30 01:52:02;;;;;;;4.18;3.28;;;12.00;99.90;;;;;;5011478;28;20025;-78
2022/07/30 01:54:29;;;;;;;4.57;2.95;;;11.90;99.90;;;;;;5010213;28;20422;-79
2022/07/30 01:56:56;;;;;;;5.07;3.35;;;11.90;99.90;;;;;;5011662;28;20027;-79
2022/07/30 01:59:25;;;;;;;8.85;3.75;;;11.90;99.90;;;;;;5011546;28;20017;-79
2022/07/30 02:01:51;;;;;;;4.72;3.58;;;11.90;99.90;;;;;;5010144;28;20030;-79
2022/07/30 02:04:17;;;;;;;6.05;4.25;;;11.90;99.90;;;;;;5011670;28;20018;-79
2022/07/30 02:06:51;;;;;;;4.07;3.58;;;12.00;99.90;;;;;;5011407;28;20037;-78
2022/07/30 02:09:22;;;;;;;4.35;3.35;;;11.90;99.90;;;;;;5009779;28;20026;-79
2022/07/30 02:14:42;;;;;;;3.00;2.70;;;11.70;99.90;;;;;;5011017;28;20049;-79
2022/07/30 02:17:15;;;;;;;4.15;3.75;;;11.70;99.90;;;;;;5009668;28;20030;-79
2022/07/30 02:19:44;;;;;;;4.05;2.85;;;11.70;99.90;;;;;;5011448;28;20049;-79
2022/07/30 02:22:14;;;;;;;5.15;3.03;;;11.60;99.90;;;;;;5011040;28;20026;-79
2022/07/30 02:24:41;;;;;;;5.28;2.97;;;11.60;99.90;;;;;;5009519;28;20026;-78
2022/07/30 02:27:15;;;;;;;5.80;3.03;;;11.60;99.90;;;;;;5011182;28;20104;-78
2022/07/30 02:29:43;;;;;;;7.00;3.70;;;11.70;99.90;;;;;;5004983;28;20037;-79
2022/07/30 02:32:13;;;;;;;6.40;3.83;;;11.70;99.90;;;;;;5010773;28;20014;-78
2022/07/30 02:34:42;;;;;;;4.72;4.03;;;11.60;99.90;;;;;;5010842;28;20057;-78
2022/07/30 02:37:11;;;;;;;4.75;3.80;;;11.60;99.90;;;;;;5010628;28;20028;-78
2022/07/30 02:39:38;;;;;;;5.93;3.83;;;11.60;99.90;;;;;;5019097;28;20030;-78
2022/07/30 02:42:06;;;;;;;5.97;4.10;;;11.60;99.90;;;;;;5010929;28;20088;-78
2022/07/30 02:44:34;;;;;;;7.95;4.28;;;11.60;99.90;;;;;;5010932;28;20112;-78
2022/07/30 02:47:01;;;;;;;4.13;3.55;;;11.50;99.90;;;;;;5010788;28;20029;-78
2022/07/30 02:49:29;;;;;;;6.30;4.60;;;11.50;99.90;;;;;;5010650;28;20109;-78
2022/07/30 02:51:56;;;;;;;5.85;3.90;;;11.50;99.90;;;;;;5010742;28;20036;-78
2022/07/30 02:54:23;;;;;;;4.47;3.55;;;11.40;99.90;;;;;;5009982;28;20574;-78
2022/07/30 02:56:50;;;;;;;4.25;3.63;;;11.40;99.90;;;;;;5010714;28;20014;-78
2022/07/30 02:59:19;;;;;;;6.43;3.75;;;11.50;99.90;;;;;;5010779;28;20026;-78
2022/07/30 03:01:46;;;;;;;7.55;3.95;;;11.60;99.90;;;;;;5008996;28;20045;-78
2022/07/30 03:04:14;;;;;;;9.88;3.75;;;11.50;99.90;;;;;;5014390;28;20014;-78
2022/07/30 03:06:41;;;;;;;5.82;3.42;;;11.60;99.90;;;;;;5014400;28;20057;-78
2022/07/30 03:09:09;;;;;;;5.68;4.25;;;11.60;99.90;;;;;;5013287;28;20036;-79
2022/07/30 03:11:35;;;;;;;5.60;3.53;;;11.60;99.90;;;;;;5015200;28;20112;-78
2022/07/30 03:14:01;;;;;;;4.93;3.78;;;11.60;99.90;;;;;;5013381;28;20746;-78
2022/07/30 03:16:29;;;;;;;3.63;3.25;;;11.50;99.90;;;;;;5013911;28;20469;-79
2022/07/30 03:18:56;;;;;;;5.70;4.15;;;11.40;99.90;;;;;;5014044;28;20050;-78
2022/07/30 03:21:25;;;;;;;4.60;4.05;;;11.30;99.90;;;;;;5013949;28;20391;-78
2022/07/30 03:23:55;;;;;;;9.05;3.85;;;11.20;99.90;;;;;;5013834;28;20045;-78
2022/07/30 03:26:23;;;;;;;9.68;4.57;;;11.10;99.90;;;;;;5012832;28;20387;-78
2022/07/30 03:28:49;;;;;;;4.43;3.63;;;11.20;99.90;;;;;;5014568;28;20022;-78
2022/07/30 03:31:16;;;;;;;7.28;4.78;;;11.30;99.90;;;;;;5013840;28;20379;-78
2022/07/30 03:33:42;;;;;;;7.32;3.47;;;11.30;99.90;;;;;;5014268;28;20471;-78
2022/07/30 03:36:11;;;;;;;6.53;3.55;;;11.20;99.90;;;;;;5013941;28;20021;-79
2022/07/30 03:38:39;;;;;;;5.93;3.97;;;11.20;99.90;;;;;;5013430;28;20029;-79
2022/07/30 03:41:07;;;;;;;7.10;3.88;;;11.10;99.90;;;;;;5013147;28;20663;-78
2022/07/30 03:43:34;;;;;;;4.18;3.78;;;11.10;99.90;;;;;;5013658;28;20083;-78
2022/07/30 03:46:02;;;;;;;8.35;4.05;;;11.00;99.90;;;;;;5013933;28;20079;-78
2022/07/30 03:48:29;;;;;;;3.33;2.67;;;10.90;99.90;;;;;;5013757;28;20105;-78
2022/07/30 03:50:55;;;;;;;5.07;3.30;;;10.90;99.90;;;;;;5012550;28;20025;-79
2022/07/30 03:53:23;;;;;;;4.25;3.63;;;10.90;99.90;;;;;;5013698;28;20030;-78
2022/07/30 03:55:51;;;;;;;4.50;3.75;;;10.80;99.90;;;;;;5013764;28;20084;-79
2022/07/30 03:58:17;;;;;;;7.30;4.40;;;10.90;99.90;;;;;;5013937;28;20392;-79
2022/07/30 04:00:47;;;;;;;9.20;4.50;;;10.90;99.90;;;;;;5012420;28;20111;-78
2022/07/30 04:03:22;;;;;;;7.25;5.43;;;10.90;99.90;;;;;;5013139;28;20021;-78
2022/07/30 04:05:48;;;;;;;6.07;4.68;;;10.90;99.90;;;;;;5013264;28;20030;-79
2022/07/30 04:08:14;;;;;;;8.18;5.30;;;11.00;99.90;;;;;;5012530;28;20438;-78
2022/07/30 04:10:39;;;;;;;5.88;4.40;;;10.90;99.90;;;;;;5013899;28;20064;-78
2022/07/30 04:13:05;;;;;;;8.25;4.90;;;10.90;99.90;;;;;;5013326;28;20030;-79
2022/07/30 04:15:44;;;;;;;6.47;4.55;;;10.80;99.90;;;;;;5012177;28;20030;-79
2022/07/30 04:18:12;;;;;;;6.28;4.82;;;10.70;99.90;;;;;;5013173;28;20108;-78
2022/07/30 04:20:43;;;;;;;5.38;3.97;;;10.70;99.90;;;;;;5013360;28;20049;-79
2022/07/30 04:23:10;;;;;;;6.80;4.65;;;10.70;99.90;;;;;;5013146;28;20045;-78
2022/07/30 04:25:38;;;;;;;5.45;4.05;;;10.80;99.90;;;;;;5013024;28;20113;-79
2022/07/30 04:28:04;;;;;;;7.90;4.70;;;10.70;99.90;;;;;;5013213;28;20128;-78
2022/07/30 04:30:34;;;;;;;9.30;4.43;;;10.60;99.90;;;;;;5012131;28;20069;-79
2022/07/30 04:33:02;;;;;;;7.97;4.65;;;10.60;99.90;;;;;;5011475;28;20018;-79
2022/07/30 04:35:30;;;;;;;5.65;4.82;;;10.60;99.90;;;;;;5013616;28;20037;-78
2022/07/30 04:37:57;;;;;;;7.63;4.93;;;10.70;99.90;;;;;;5011460;28;20118;-79
2022/07/30 04:40:22;;;;;;;6.25;4.65;;;10.60;99.90;;;;;;5012671;28;20017;-78
2022/07/30 04:42:48;;;;;;;10.88;4.63;;;10.60;99.90;;;;;;5012440;28;20038;-78
2022/07/30 04:45:14;;;;;;;8.70;4.68;;;10.60;99.90;;;;;;5011407;28;20026;-78
2022/07/30 04:47:39;;;;;;;7.53;4.85;;;10.60;99.90;;;;;;5011414;28;20479;-78
2022/07/30 04:50:07;;;;;;;6.68;5.10;;;10.80;99.90;;;;;;5012892;28;20602;-78
2022/07/30 04:52:34;;;;;;;8.38;5.28;;;10.80;99.90;;;;;;5012903;28;20030;-78
2022/07/30 04:55:04;;;;;;;9.13;5.13;;;10.80;99.90;;;;;;5012722;28;20025;-78
2022/07/30 04:57:31;;;;;;;8.27;4.63;;;10.90;99.90;;;;;;5012496;28;20010;-78
2022/07/30 04:59:57;;;;;;;9.18;5.10;;;10.90;99.90;;;;;;5012587;28;20021;-79
2022/07/30 05:02:28;;;;;;;7.45;4.68;;;11.00;99.90;;;;;;5011895;28;20068;-78
2022/07/30 05:04:55;;;;;;;5.72;4.50;;;11.10;99.90;;;;;;5011473;28;20069;-78
2022/07/30 05:07:21;;;;;;;9.02;4.30;;;11.20;99.90;;;;;;5012015;28;20034;-78
2022/07/30 05:09:47;;;;;;;7.03;4.78;;;11.20;99.90;;;;;;5012518;28;20076;-79
2022/07/30 05:12:13;;;;;;;8.48;5.22;;;11.30;99.90;;;;;;5010231;28;20030;-78
2022/07/30 05:14:39;;;;;;;7.97;5.63;;;11.50;99.90;;;;;;5003740;28;20090;-79
2022/07/30 05:17:04;;;;;;;8.00;5.50;;;11.60;99.90;;;;;;5009284;28;20065;-79
2022/07/30 05:19:30;;;;;;;9.02;5.50;;;11.80;99.90;;;;;;5007829;28;20030;-78
2022/07/30 05:21:56;;;;;;;7.75;5.28;;;11.80;99.90;;;;;;5002469;28;20125;-78
2022/07/30 05:24:22;;;;;;;8.57;5.20;;;11.80;99.90;;;;;;5010970;28;20105;-79
2022/07/30 05:26:48;;;;;;;9.95;5.50;;;11.80;99.90;;;;;;5010938;28;20048;-78
2022/07/30 05:29:13;;;;;;;8.05;4.90;;;11.90;99.90;;;;;;5011853;28;20076;-79
2022/07/30 05:31:39;;;;;;;9.52;5.35;;;11.90;99.90;;;;;;5011884;28;20084;-79
2022/07/30 05:34:05;;;;;;;7.32;5.57;;;12.00;99.90;;;;;;5010890;28;20029;-78
2022/07/30 05:36:31;;;;;;;9.40;6.07;;;12.10;99.90;;;;;;5011590;28;20040;-78
2022/07/30 05:38:57;;;;;;;8.52;6.70;;;12.30;99.90;;;;;;5010651;28;20026;-78
2022/07/30 05:41:23;;;;;;;8.18;5.05;;;12.40;99.90;;;;;;5011327;28;20121;-78
2022/07/30 05:43:48;;;;;;;13.88;4.95;;;12.50;99.90;;;;;;5026769;28;20034;-78
2022/07/30 05:46:14;;;;;;;7.00;4.72;;;12.50;99.90;;;;;;5011844;28;20021;-79
2022/07/30 05:48:40;;;;;;;11.32;5.40;;;12.60;99.90;;;;;;5011802;28;20037;-79
2022/07/30 05:51:05;;;;;;;8.05;4.57;;;12.80;99.90;;;;;;5011645;28;20193;-78
2022/07/30 05:53:31;;;;;;;9.98;5.88;;;12.90;99.90;;;;;;5011529;28;20036;-79
2022/07/30 05:55:57;;;;;;;10.88;6.05;;;13.10;99.90;;;;;;5004909;28;20486;-78
2022/07/30 05:58:23;;;;;;;11.98;5.38;;;13.30;99.90;;;;;;5010408;28;20068;-78
2022/07/30 06:00:49;;;;;;;8.70;4.70;;;13.40;99.90;;;;;;5011017;28;20440;-79
2022/07/30 06:03:15;;;;;;;8.40;5.53;;;13.60;99.90;;;;;;5019773;28;20038;-79
2022/07/30 06:05:41;;;;;;;9.27;5.00;;;13.80;99.90;;;;;;5011513;28;20022;-78
2022/07/30 06:08:07;;;;;;;8.85;5.28;;;14.10;99.90;;;;;;5010646;28;20034;-78
2022/07/30 06:10:33;;;;;;;7.05;4.85;;;14.50;99.90;;;;;;5011335;28;20022;-78
2022/07/30 06:12:59;;;;;;;10.40;6.00;;;14.80;99.90;;;;;;5011115;28;20037;-78
2022/07/30 06:15:24;;;;;;;7.13;5.38;;;15.10;99.90;;;;;;5009861;28;20677;-79
2022/07/30 06:17:50;;;;;;;6.93;5.90;;;15.60;99.90;;;;;;5010492;28;20379;-79
2022/07/30 06:20:17;;;;;;;7.72;4.88;;;15.90;99.90;;;;;;5010343;28;20494;-78
2022/07/30 06:22:43;;;;;;;5.47;4.10;;;16.10;99.90;;;;;;5011238;28;20049;-78
2022/07/30 06:25:09;;;;;;;5.25;4.10;;;16.40;99.90;;;;;;5011125;28;20014;-79
2022/07/30 06:27:36;;;;;;;5.65;4.13;;;16.60;99.90;;;;;;5010653;28;20482;-79
2022/07/30 06:30:07;;;;;;;7.28;5.15;;;16.80;99.90;;;;;;5010917;28;20124;-79
2022/07/30 06:32:33;;;;;;;8.17;4.87;;;16.90;99.90;;;;;;5010994;28;20060;-79
2022/07/30 06:34:59;;;;;;;8.80;4.55;;;17.00;99.90;;;;;;5010956;28;20025;-78
2022/07/30 06:37:25;;;;;;;6.00;4.55;;;17.10;99.90;;;;;;5010624;28;20025;-79
2022/07/30 06:39:50;;;;;;;7.03;4.57;;;17.10;99.90;;;;;;5011241;28;20045;-78
2022/07/30 06:42:16;;;;;;;8.90;5.65;;;17.10;99.90;;;;;;5010646;28;20562;-78
2022/07/30 06:44:42;;;;;;;9.60;5.65;;;17.10;99.90;;;;;;5010195;28;20111;-78
2022/07/30 06:47:08;;;;;;;7.25;5.85;;;17.10;99.90;;;;;;5010522;28;20029;-78
2022/07/30 06:49:34;;;;;;;7.13;5.28;;;17.00;99.90;;;;;;5010733;28;20479;-78
2022/07/30 06:52:01;;;;;;;9.93;5.90;;;17.00;99.90;;;;;;5010820;28;21412;-78
2022/07/30 06:54:27;;;;;;;9.85;6.47;;;17.10;99.90;;;;;;5010925;28;20356;-78
2022/07/30 06:56:53;;;;;;;7.97;6.00;;;17.20;99.90;;;;;;5010760;28;20483;-79
2022/07/30 06:59:18;;;;;;;9.18;6.97;;;17.20;99.90;;;;;;5010591;28;20016;-78
2022/07/30 07:01:44;;;;;;;8.48;5.72;;;17.30;99.90;;;;;;5010243;28;20037;-78
2022/07/30 07:04:10;;;;;;;7.65;5.57;;;17.40;99.90;;;;;;5010741;28;20364;-78
2022/07/30 07:06:36;;;;;;;7.10;4.80;;;17.40;99.90;;;;;;5010367;28;20061;-79
2022/07/30 07:09:02;;;;;;;9.73;5.07;;;17.50;99.90;;;;;;5009886;28;20018;-78
2022/07/30 07:11:28;;;;;;;11.40;6.53;;;17.60;99.90;;;;;;5008552;28;20049;-78
2022/07/30 07:13:53;;;;;;;10.25;7.20;;;17.60;99.90;;;;;;5009574;28;20029;-78
2022/07/30 07:16:21;;;;;;;14.75;7.05;;;17.60;99.90;;;;;;5009121;28;20028;-78
2022/07/30 07:18:47;;;;;;;12.80;7.55;;;17.70;99.90;;;;;;5009568;28;20467;-78
2022/07/30 07:21:16;;;;;;;10.02;6.20;;;17.80;99.90;;;;;;5009088;28;20140;-78
2022/07/30 07:23:41;;;;;;;11.98;6.43;;;17.90;99.90;;;;;;5015736;28;20109;-78
2022/07/30 07:26:07;;;;;;;11.90;7.57;;;18.00;99.90;;;;;;5018053;28;20427;-78
2022/07/30 07:28:33;;;;;;;9.10;6.63;;;18.10;99.90;;;;;;5019406;28;20030;-79
2022/07/30 07:30:59;;;;;;;9.48;6.85;;;18.30;99.90;;;;;;5016353;28;20014;-79
2022/07/30 07:33:24;;;;;;;12.60;8.82;;;18.40;99.90;;;;;;5015269;28;20104;-79
2022/07/30 07:35:50;;;;;;;13.00;9.68;;;18.70;99.90;;;;;;5018258;28;20010;-79
2022/07/30 07:38:17;;;;;;;15.70;8.77;;;18.90;99.90;;;;;;5017320;28;20367;-79
2022/07/30 07:40:42;;;;;;;11.43;8.70;;;19.10;99.90;;;;;;5018237;28;20053;-79
2022/07/30 07:43:08;;;;;;;15.75;9.77;;;19.50;99.90;;;;;;5014923;28;20442;-79
2022/07/30 07:45:34;;;;;;;15.60;9.57;;;19.80;99.90;;;;;;5016252;28;20108;-79
2022/07/30 07:48:00;;;;;;;11.40;8.93;;;20.10;99.90;;;;;;5015870;28;20394;-79
2022/07/30 07:50:26;;;;;;;12.93;8.60;;;20.30;99.90;;;;;;5019211;28;20074;-79
2022/07/30 07:52:51;;;;;;;12.63;7.55;;;20.50;99.90;;;;;;5017725;28;20017;-79
2022/07/30 07:55:17;;;;;;;13.35;8.48;;;20.70;99.90;;;;;;5019366;28;20040;-79
2022/07/30 07:57:44;;;;;;;13.60;7.75;;;20.80;99.90;;;;;;5021209;28;20024;-79
2022/07/30 08:00:16;;;;;;;9.95;7.20;;;20.90;99.90;;;;;;5018599;28;20026;-79
2022/07/30 08:02:42;;;;;;;10.93;8.77;;;21.10;99.90;;;;;;5011254;28;20137;-79
2022/07/30 08:07:39;;;;;;;16.63;7.38;;;21.10;99.90;;;;;;5025313;28;20502;-72
2022/07/30 08:10:06;;;;;;;10.68;7.50;;;21.10;99.90;;;;;;5017361;28;20063;-74
2022/07/30 08:12:31;;;;;;;14.10;7.78;;;21.10;99.90;;;;;;5029135;28;20072;-73
2022/07/30 08:14:57;;;;;;;10.80;6.82;;;21.10;99.90;;;;;;5027017;28;20029;-73
2022/07/30 08:17:23;;;;;;;12.18;6.90;;;21.10;99.90;;;;;;5027875;28;20017;-73
2022/07/30 08:19:49;;;;;;;13.00;6.70;;;21.10;99.90;;;;;;5031028;28;20029;-73
2022/07/30 08:22:15;;;;;;;8.98;6.47;;;21.00;99.90;;;;;;5026750;28;20542;-75
2022/07/30 08:24:40;;;;;;;8.90;5.63;;;21.10;99.90;;;;;;5028416;28;20516;-75
2022/07/30 08:27:06;;;;;;;8.70;5.18;;;21.10;99.90;;;;;;5029960;28;20049;-75
2022/07/30 08:29:32;;;;;;;10.40;5.15;;;21.20;99.90;;;;;;5028787;28;20022;-75
2022/07/30 08:31:58;;;;;;;7.95;5.25;;;21.40;99.90;;;;;;5023338;28;20053;-75
2022/07/30 08:34:24;;;;;;;7.90;5.00;;;21.60;99.90;;;;;;5020889;28;20112;-75
2022/07/30 08:36:49;;;;;;;6.93;4.65;;;21.60;99.90;;;;;;5028085;28;20071;-73
2022/07/30 08:39:15;;;;;;;11.88;5.15;;;21.70;99.90;;;;;;5028864;28;20032;-75
2022/07/30 08:41:41;;;;;;;6.90;4.70;;;21.90;99.90;;;;;;5024657;28;20184;-75
2022/07/30 08:44:11;;;;;;;5.10;4.00;;;22.00;99.90;;;;;;4964045;28;20063;-75
2022/07/30 08:46:41;;;;;;;6.70;4.57;;;22.20;99.90;;;;;;5029473;28;20387;-75
2022/07/30 08:49:07;;;;;;;7.65;3.63;;;22.40;99.90;;;;;;5013091;28;20033;-75
2022/07/30 08:51:34;;;;;;;5.88;3.60;;;22.70;99.90;;;;;;5011878;28;20028;-75
2022/07/30 08:54:02;;;;;;;5.55;3.40;;;23.10;99.90;;;;;;5011698;28;20030;-75
2022/07/30 08:56:28;;;;;;;5.53;3.30;;;23.30;94.50;;;;;;5012150;28;20153;-75
2022/07/30 08:58:55;;;;;;;5.93;3.10;;;23.40;92.90;;;;;;5012575;28;20034;-75
2022/07/30 09:01:21;;;;;;;3.25;2.35;;;23.60;89.50;;;;;;5010559;28;20034;-75
2022/07/30 09:03:47;;;;;;;3.35;2.28;;;23.70;81.30;;;;;;5011900;28;20109;-74
2022/07/30 09:06:14;;;;;;;2.95;2.30;;;23.90;85.00;;;;;;5036923;23;20143;-80
2022/07/30 09:08:40;;;;;;;4.68;3.53;;;23.80;90.30;;;;;;5030816;28;20022;-80
2022/07/30 09:11:05;;;;;;;6.68;3.05;;;23.80;91.90;;;;;;5031681;28;20740;-79
2022/07/30 09:13:34;;;;;;;5.15;3.05;;;23.80;90.70;;;;;;5031632;28;20048;-79
2022/07/30 09:16:00;;;;;;;7.30;3.67;;;23.80;84.80;;;;;;5025009;28;20087;-80
2022/07/30 09:18:31;;;;;;;6.68;3.10;;;23.90;86.80;;;;;;5031355;28;20038;-78
2022/07/30 09:21:12;;;;;;;3.10;2.13;;;23.90;84.20;;;;;;5031441;28;20523;-78
2022/07/30 09:23:38;;;;;;;4.55;2.42;;;23.90;70.60;;;;;;5046596;28;20072;-79
2022/07/30 09:26:04;;;;;;;4.05;2.90;;;23.90;76.10;;;;;;5030350;28;20049;-79
2022/07/30 09:28:32;;;;;;;4.75;2.60;;;23.90;75.20;;;;;;5031492;28;20458;-79
2022/07/30 09:30:59;;;;;;;7.50;3.97;;;24.10;75.90;;;;;;5031559;28;20591;-79
2022/07/30 09:33:45;;;;;;;6.70;2.83;;;24.10;76.10;;;;;;5031388;28;20018;-78
2022/07/30 09:36:13;;;;;;;4.25;2.88;;;24.40;75.80;;;;;;5028546;28;20032;-78
2022/07/30 09:38:45;;;;;;;4.40;2.75;;;24.40;75.40;;;;;;5027989;28;20021;-78
2022/07/30 09:41:11;;;;;;;5.22;2.70;;;24.50;75.00;;;;;;5029604;28;20556;-79
2022/07/30 09:43:44;;;;;;;3.20;2.40;;;24.90;76.90;;;;;;5029084;28;20498;-78
2022/07/30 09:46:10;;;;;;;4.65;3.08;;;25.10;77.10;;;;;;5029651;28;20067;-79
2022/07/30 09:48:36;;;;;;;3.45;1.95;;;25.50;76.20;;;;;;5028336;28;20029;-80
2022/07/30 09:51:02;;;;;;;5.25;2.33;;;25.50;74.10;;;;;;5030190;28;20083;-78
2022/07/30 09:53:28;;;;;;;4.30;1.63;;;25.40;72.10;;;;;;5031503;28;20029;-80
2022/07/30 09:55:55;;;;;;;4.03;1.70;;;25.10;68.80;;;;;;5029243;28;20017;-80
2022/07/30 09:58:20;;;;;;;4.40;1.67;;;25.40;67.50;;;;;;5040820;28;20017;-80
2022/07/30 10:00:47;;;;;;;4.32;2.00;;;25.90;69.50;;;;;;5045270;28;20393;-82
2022/07/30 10:03:23;;;;;;;3.30;1.90;;;26.20;69.40;;;;;;5041262;28;20382;-80
2022/07/30 10:05:54;;;;;;;7.72;1.83;;;26.30;70.00;;;;;;5082216;22;20033;-72
2022/07/30 10:08:20;;;;;;;6.75;1.80;;;26.80;63.30;;;;;;5044491;28;20078;-73
2022/07/30 10:10:48;;;;;;;2.80;1.33;;;27.70;57.80;;;;;;5046157;28;20047;-75
2022/07/30 10:13:16;;;;;;;3.08;1.60;;;28.50;56.10;;;;;;5033401;28;20025;-75
2022/07/30 10:15:43;;;;;;;4.30;1.20;;;28.90;50.90;;;;;;5031171;28;20589;-76
2022/07/30 10:18:10;;;;;;;9.88;1.90;;;28.80;53.60;;;;;;5030512;28;20104;-76
2022/07/30 10:20:37;;;;;;;3.22;1.60;;;28.50;52.90;;;;;;5033803;28;20036;-76
2022/07/30 10:23:07;;;;;;;1.92;1.40;;;28.00;54.80;;;;;;5029311;28;20498;-76
2022/07/30 10:25:33;;;;;;;6.47;1.48;;;27.50;55.70;;;;;;5030343;28;20022;-76
2022/07/30 10:27:59;;;;;;;3.83;1.67;;;27.20;59.50;;;;;;5029566;28;20378;-76
2022/07/30 10:30:26;;;;;;;3.83;1.38;;;26.60;60.70;;;;;;5029511;28;20021;-76
2022/07/30 10:32:52;;;;;;;2.58;1.50;;;26.80;62.50;;;;;;5021347;28;20029;-75
2022/07/30 10:35:18;;;;;;;4.40;1.88;;;26.60;63.70;;;;;;5030884;28;20051;-76
2022/07/30 10:37:48;;;;;;;2.72;1.70;;;27.00;63.20;;;;;;5030154;28;20272;-76
2022/07/30 10:40:17;;;;;;;3.72;1.88;;;27.50;61.90;;;;;;5029630;28;20037;-75
2022/07/30 10:42:55;;;;;;;6.68;1.60;;;27.70;62.10;;;;;;5030374;28;20540;-75
2022/07/30 10:45:51;;;;;;;5.97;1.90;;;28.10;61.40;;;;;;5030410;28;20020;-76
2022/07/30 10:48:18;;;;;;;4.20;1.33;;;29.00;56.80;;;;;;5030194;28;20021;-76
2022/07/30 10:50:56;;;;;;;1.88;1.55;;;29.90;55.10;;;;;;5022056;28;20502;-76
2022/07/30 10:53:39;;;;;;;2.40;1.23;;;30.20;52.30;;;;;;5024240;28;20025;-77
2022/07/30 10:56:24;;;;;;;3.70;1.20;;;30.20;50.90;;;;;;5019747;28;20491;-76
2022/07/30 10:59:08;;;;;;;6.82;1.60;;;29.80;52.50;;;;;;5018826;28;20209;-79
2022/07/30 11:01:46;;;;;;;3.45;1.17;;;29.80;50.60;;;;;;5024373;28;20037;-76
2022/07/30 11:04:19;;;;;;;2.50;1.42;;;30.00;53.20;;;;;;5025787;28;20020;-77
2022/07/30 11:06:45;;;;;;;3.38;1.50;;;30.00;52.30;;;;;;5042842;23;20029;-82
2022/07/30 11:09:41;;;;;;;5.70;1.63;;;30.10;52.70;;;;;;5024766;28;20029;-88
2022/07/30 11:12:08;;;;;;;5.03;1.45;;;30.40;52.80;;;;;;5023123;28;20044;-85
2022/07/30 11:14:46;;;;;;;4.10;1.25;;;30.60;53.20;;;;;;5023946;28;20425;-81
2022/07/30 11:17:14;;;;;;;3.72;1.00;;;31.10;50.80;;;;;;5020004;28;20021;-78
2022/07/30 11:20:05;;;;;;;4.45;1.15;;;31.40;50.20;;;;;;5017912;28;20029;-83
2022/07/30 11:22:37;;;;;;;;;;;32.00;46.70;;;;;;5019837;28;20034;-85
2022/07/30 11:25:04;;;;;;;1.88;1.20;;;32.30;44.90;;;;;;5028873;28;19928;-81
2022/07/30 11:27:45;;;;;;;1.90;0.82;;;32.70;42.00;;;;;;5028149;28;20051;-79
2022/07/30 11:30:19;;;;;;;2.10;0.85;;;33.10;42.60;;;;;;5032248;28;20406;-78
2022/07/30 11:32:53;;;;;;;2.13;0.93;;;33.60;40.60;;;;;;5029135;28;20109;-79
2022/07/30 11:35:24;;;;;;;3.90;1.20;;;33.00;40.10;;;;;;5034068;28;20104;-79
2022/07/30 11:38:14;;;;;;;4.00;1.00;;;32.50;41.90;;;;;;5032334;28;20021;-79
2022/07/30 11:40:46;;;;;;;2.28;0.98;;;31.80;42.80;;;;;;5026095;28;20021;-78
2022/07/30 11:43:15;;;;;;;2.25;0.75;;;31.80;42.30;;;;;;5031869;28;20026;-76
2022/07/30 11:45:41;;;;;;;1.67;0.77;;;31.60;42.50;;;;;;5033204;28;20029;-78
2022/07/30 11:48:12;;;;;;;2.53;0.63;;;32.00;43.20;;;;;;5030149;28;20360;-78
2022/07/30 11:50:38;;;;;;;1.33;0.73;;;31.60;44.20;;;;;;5036958;28;20021;-78
2022/07/30 11:53:07;;;;;;;2.97;0.65;;;31.10;41.40;;;;;;5031220;28;20394;-78
2022/07/30 11:55:41;;;;;;;2.95;1.00;;;31.00;42.80;;;;;;5031609;28;20017;-79
2022/07/30 11:58:10;;;;;;;3.20;1.23;;;30.70;43.30;;;;;;5030825;28;20025;-77
2022/07/30 12:00:40;;;;;;;1.42;0.52;;;30.70;44.60;;;;;;5031219;28;20043;-80
2022/07/30 12:03:27;;;;;;;1.98;0.90;;;31.00;46.80;;;;;;5031435;28;20580;-79
2022/07/30 12:05:54;;;;;;;5.72;1.00;;;31.20;44.80;;;;;;5059165;23;20061;-74
2022/07/30 12:08:20;;;;;;;1.92;0.70;;;31.90;44.70;;;;;;5052136;28;20108;-75
2022/07/30 12:11:00;;;;;;;2.80;0.90;;;32.70;44.80;;;;;;5051157;28;20028;-75
2022/07/30 12:13:26;;;;;;;2.28;0.70;;;32.80;42.70;;;;;;5045750;28;20031;-75
2022/07/30 12:15:52;;;;;;;3.50;0.98;;;32.20;41.00;;;;;;5045717;28;20036;-75
2022/07/30 12:18:27;;;;;;;1.23;0.80;;;30.90;44.20;;;;;;5031815;28;20397;-75
2022/07/30 12:21:01;;;;;;;3.33;1.20;;;30.20;48.50;;;;;;5032141;28;20022;-76
2022/07/30 12:23:28;;;;;;;2.25;0.60;;;29.70;49.40;;;;;;5027557;28;20044;-74
2022/07/30 12:25:54;;;;;;;3.38;1.00;;;29.40;49.90;;;;;;5031188;28;20028;-75
2022/07/30 12:28:23;;;;;;;2.22;0.65;;;29.20;49.80;;;;;;5032853;28;20022;-75
2022/07/30 12:30:50;;;;;;;2.10;0.77;;;28.90;50.90;;;;;;5035857;28;20030;-75
2022/07/30 12:33:16;;;;;;;1.63;0.60;;;29.00;50.90;;;;;;5039851;28;20044;-75
2022/07/30 12:35:43;;;;;;;1.10;0.60;;;28.90;50.50;;;;;;5037743;28;20033;-74
2022/07/30 12:38:09;;;;;;;4.03;0.70;;;29.40;50.90;;;;;;5039699;28;20064;-75
2022/07/30 12:40:53;;;;;;;1.35;0.50;;;29.50;49.50;;;;;;5034528;28;20029;-75
2022/07/30 12:43:44;;;;;;;1.90;0.68;;;29.20;49.50;;;;;;5041333;28;20540;-75
2022/07/30 12:46:24;;;;;;;1.73;0.70;;;28.70;48.40;;;;;;5036739;28;20075;-75
2022/07/30 12:48:56;;;;;;;4.35;0.80;;;28.30;50.00;;;;;;5037025;28;20371;-74
2022/07/30 12:51:28;;;;;;;2.58;0.55;;;28.00;51.50;;;;;;5030546;28;20064;-74
2022/07/30 12:53:55;;;;;;;2.38;0.55;;;27.90;51.80;;;;;;5032165;28;20025;-76
2022/07/30 12:56:26;;;;;;;0.45;0.32;;;27.80;51.80;;;;;;5032334;28;20026;-75